Scott AFB/Midamerica Airport
KBLV : rendu visible

Aérodrome :











RETROUVEZ-NOUS SUR...

 
LOGIN :

S'inscrire | Disclaimer

   EN    FR    IT 

 









Légende :    VFR   VFR Marginal   IFR   IFR Intensif   IFR Très Intensif
Visi : 
Plafond : 
>= 8 km
>= 3000ft
5 à 8 km
1000 à 3000 ft
1500m à 5 km
500 à 1000 ft
800 à 1500m
200 à 500 ft
< 800m
< 200 ft
Symboles :   Orages  Brouillard  Fortes neiges  Fortes précipitations  Vent > 20 kt






- Altitude de l'aérodrome : 459 ft


KBLV - Scott AFB/Midamerica

DERNIER METAR :
  • 121756Z AUTO 36005KT 10SM CLR M07/M15 A3059 RMK AO2 SLP370 T10731153 11073 21118 $

METARs EXPIRÉS :
  • 121656Z AUTO 30008KT 10SM CLR M08/M16 A3061 RMK AO2 SLP377 T10821163 $
  • 121556Z AUTO 35009KT 10SM CLR M09/M16 A3062 RMK AO2 SLP381 T10901160 $

TAF TAF KBLV
Valide du 12 à 16h jusqu'au 13 à 22h UTC


121600Z 1216/1322 34009KT 9999 SKC QNH3050INS
BECMG 1223/1224 VRB06KT 9999 SKC QNH3027INS
BECMG 1316/1317 16015KT 9999 FEW250 QNH3007INS TXM05/1221Z TNM12/1308Z



MET'MAP, la Météo Aéronautique d'un coup d'oeil ! - Copyright ORBIFLY Décembre 2007 - Disclaimer

ORBIFLY MET'MAP TEAM :

Programmation & Développement : Alexandra Zaïnal
Conception & Développement : Baudouin d'Aumeries
Co-Programmation & Développement : Marc-Olivier Méhu
Soutien technique & logistique : Manuel Goepfert

Contact : metmap@orbifly.com




SOURCES & CREDITS :

   NOAA       Earth
Advisory